sensor_id;sensor_type;location;lat;lon;timestamp;pressure;altitude;pressure_sealevel;temperature
64960;BMP180;51487;52.266;10.542;2023-04-16T00:02:16;100648.00;;;8.70
64960;BMP180;51487;52.266;10.542;2023-04-16T00:04:41;100647.00;;;8.70
64960;BMP180;51487;52.266;10.542;2023-04-16T00:07:07;100651.00;;;8.60
64960;BMP180;51487;52.266;10.542;2023-04-16T00:09:32;100638.00;;;8.50
64960;BMP180;51487;52.266;10.542;2023-04-16T00:11:58;100655.00;;;8.70
64960;BMP180;51487;52.266;10.542;2023-04-16T00:14:24;100645.00;;;8.60
64960;BMP180;51487;52.266;10.542;2023-04-16T00:16:49;100656.00;;;8.60
64960;BMP180;51487;52.266;10.542;2023-04-16T00:19:15;100654.00;;;8.60
64960;BMP180;51487;52.266;10.542;2023-04-16T00:21:40;100653.00;;;8.40
64960;BMP180;51487;52.266;10.542;2023-04-16T00:24:06;100651.00;;;8.50
64960;BMP180;51487;52.266;10.542;2023-04-16T00:26:32;100652.00;;;8.40
64960;BMP180;51487;52.266;10.542;2023-04-16T00:28:57;100650.00;;;8.40
64960;BMP180;51487;52.266;10.542;2023-04-16T00:31:27;100650.00;;;8.30
64960;BMP180;51487;52.266;10.542;2023-04-16T00:33:53;100655.00;;;8.30
64960;BMP180;51487;52.266;10.542;2023-04-16T00:36:19;100655.00;;;8.30
64960;BMP180;51487;52.266;10.542;2023-04-16T00:38:45;100660.00;;;8.30
64960;BMP180;51487;52.266;10.542;2023-04-16T00:41:10;100667.00;;;8.30
64960;BMP180;51487;52.266;10.542;2023-04-16T00:43:36;100667.00;;;8.30
64960;BMP180;51487;52.266;10.542;2023-04-16T00:46:03;100665.00;;;8.30
64960;BMP180;51487;52.266;10.542;2023-04-16T00:48:31;100676.00;;;8.30
64960;BMP180;51487;52.266;10.542;2023-04-16T00:50:58;100678.00;;;8.30
64960;BMP180;51487;52.266;10.542;2023-04-16T00:53:25;100668.00;;;8.20
64960;BMP180;51487;52.266;10.542;2023-04-16T00:55:52;100673.00;;;8.20
64960;BMP180;51487;52.266;10.542;2023-04-16T00:58:18;100678.00;;;8.20
64960;BMP180;51487;52.266;10.542;2023-04-16T01:00:43;100671.00;;;8.10
64960;BMP180;51487;52.266;10.542;2023-04-16T01:03:09;100668.00;;;8.10
64960;BMP180;51487;52.266;10.542;2023-04-16T01:05:35;100680.00;;;8.10
64960;BMP180;51487;52.266;10.542;2023-04-16T01:08:01;100680.00;;;8.10
64960;BMP180;51487;52.266;10.542;2023-04-16T01:10:27;100685.00;;;8.20
64960;BMP180;51487;52.266;10.542;2023-04-16T01:12:52;100682.00;;;8.10
64960;BMP180;51487;52.266;10.542;2023-04-16T01:15:18;100687.00;;;8.10
64960;BMP180;51487;52.266;10.542;2023-04-16T01:17:47;100693.00;;;8.10
64960;BMP180;51487;52.266;10.542;2023-04-16T01:20:13;100691.00;;;8.00
64960;BMP180;51487;52.266;10.542;2023-04-16T01:22:39;100698.00;;;7.90
64960;BMP180;51487;52.266;10.542;2023-04-16T01:25:04;100697.00;;;8.00
64960;BMP180;51487;52.266;10.542;2023-04-16T01:27:30;100704.00;;;8.00
64960;BMP180;51487;52.266;10.542;2023-04-16T01:29:56;100694.00;;;8.10
64960;BMP180;51487;52.266;10.542;2023-04-16T01:32:22;100708.00;;;8.00
64960;BMP180;51487;52.266;10.542;2023-04-16T01:34:48;100708.00;;;8.00
64960;BMP180;51487;52.266;10.542;2023-04-16T01:37:16;100705.00;;;8.00
64960;BMP180;51487;52.266;10.542;2023-04-16T01:39:42;100705.00;;;7.90
64960;BMP180;51487;52.266;10.542;2023-04-16T01:42:07;100708.00;;;7.90
64960;BMP180;51487;52.266;10.542;2023-04-16T01:44:32;100708.00;;;8.00
64960;BMP180;51487;52.266;10.542;2023-04-16T01:46:58;100708.00;;;7.90
64960;BMP180;51487;52.266;10.542;2023-04-16T01:49:24;100702.00;;;7.80
64960;BMP180;51487;52.266;10.542;2023-04-16T01:51:49;100704.00;;;7.80
64960;BMP180;51487;52.266;10.542;2023-04-16T01:54:15;100705.00;;;7.80
64960;BMP180;51487;52.266;10.542;2023-04-16T01:56:41;100692.00;;;7.80
64960;BMP180;51487;52.266;10.542;2023-04-16T01:59:06;100697.00;;;7.90
64960;BMP180;51487;52.266;10.542;2023-04-16T02:01:32;100698.00;;;7.90
64960;BMP180;51487;52.266;10.542;2023-04-16T02:03:57;100694.00;;;7.90
64960;BMP180;51487;52.266;10.542;2023-04-16T02:06:23;100694.00;;;7.90
64960;BMP180;51487;52.266;10.542;2023-04-16T02:08:48;100698.00;;;7.80
64960;BMP180;51487;52.266;10.542;2023-04-16T02:11:14;100701.00;;;7.80
64960;BMP180;51487;52.266;10.542;2023-04-16T02:13:40;100701.00;;;7.80
64960;BMP180;51487;52.266;10.542;2023-04-16T02:16:05;100703.00;;;7.80
64960;BMP180;51487;52.266;10.542;2023-04-16T02:18:31;100701.00;;;7.80
64960;BMP180;51487;52.266;10.542;2023-04-16T02:20:57;100709.00;;;7.70
64960;BMP180;51487;52.266;10.542;2023-04-16T02:23:27;100712.00;;;7.70
64960;BMP180;51487;52.266;10.542;2023-04-16T02:25:52;100716.00;;;7.60
64960;BMP180;51487;52.266;10.542;2023-04-16T02:28:18;100711.00;;;7.70
64960;BMP180;51487;52.266;10.542;2023-04-16T02:30:43;100713.00;;;7.60
64960;BMP180;51487;52.266;10.542;2023-04-16T02:33:10;100714.00;;;7.60
64960;BMP180;51487;52.266;10.542;2023-04-16T02:35:37;100717.00;;;7.50
64960;BMP180;51487;52.266;10.542;2023-04-16T02:38:04;100715.00;;;7.50
64960;BMP180;51487;52.266;10.542;2023-04-16T02:40:30;100728.00;;;7.40
64960;BMP180;51487;52.266;10.542;2023-04-16T02:42:56;100726.00;;;7.40
64960;BMP180;51487;52.266;10.542;2023-04-16T02:45:22;100735.00;;;7.40
64960;BMP180;51487;52.266;10.542;2023-04-16T02:47:48;100729.00;;;7.30
64960;BMP180;51487;52.266;10.542;2023-04-16T02:50:15;100736.00;;;7.40
64960;BMP180;51487;52.266;10.542;2023-04-16T02:52:41;100743.00;;;7.30
64960;BMP180;51487;52.266;10.542;2023-04-16T02:55:07;100743.00;;;7.40
64960;BMP180;51487;52.266;10.542;2023-04-16T02:57:33;100743.00;;;7.40
64960;BMP180;51487;52.266;10.542;2023-04-16T02:59:59;100737.00;;;7.30
64960;BMP180;51487;52.266;10.542;2023-04-16T03:02:25;100742.00;;;7.40
64960;BMP180;51487;52.266;10.542;2023-04-16T03:04:52;100741.00;;;7.50
64960;BMP180;51487;52.266;10.542;2023-04-16T03:07:18;100733.00;;;7.60
64960;BMP180;51487;52.266;10.542;2023-04-16T03:09:43;100741.00;;;7.60
64960;BMP180;51487;52.266;10.542;2023-04-16T03:12:09;100738.00;;;7.50
64960;BMP180;51487;52.266;10.542;2023-04-16T03:14:35;100743.00;;;7.50
64960;BMP180;51487;52.266;10.542;2023-04-16T03:17:00;100748.00;;;7.50
64960;BMP180;51487;52.266;10.542;2023-04-16T03:19:26;100753.00;;;7.60
64960;BMP180;51487;52.266;10.542;2023-04-16T03:21:52;100748.00;;;7.30
64960;BMP180;51487;52.266;10.542;2023-04-16T03:24:17;100751.00;;;7.30
64960;BMP180;51487;52.266;10.542;2023-04-16T03:26:43;100759.00;;;7.30
64960;BMP180;51487;52.266;10.542;2023-04-16T03:29:08;100754.00;;;7.20
64960;BMP180;51487;52.266;10.542;2023-04-16T03:31:34;100756.00;;;7.20
64960;BMP180;51487;52.266;10.542;2023-04-16T03:33:59;100754.00;;;7.20
64960;BMP180;51487;52.266;10.542;2023-04-16T03:36:25;100751.00;;;7.30
64960;BMP180;51487;52.266;10.542;2023-04-16T03:38:53;100755.00;;;7.20
64960;BMP180;51487;52.266;10.542;2023-04-16T03:41:19;100758.00;;;7.30
64960;BMP180;51487;52.266;10.542;2023-04-16T03:43:44;100766.00;;;7.20
64960;BMP180;51487;52.266;10.542;2023-04-16T03:46:10;100759.00;;;7.10
64960;BMP180;51487;52.266;10.542;2023-04-16T03:48:36;100767.00;;;7.10
64960;BMP180;51487;52.266;10.542;2023-04-16T03:51:02;100768.00;;;7.20
64960;BMP180;51487;52.266;10.542;2023-04-16T03:53:27;100774.00;;;7.20
64960;BMP180;51487;52.266;10.542;2023-04-16T03:55:53;100765.00;;;7.30
64960;BMP180;51487;52.266;10.542;2023-04-16T03:58:19;100773.00;;;7.20
64960;BMP180;51487;52.266;10.542;2023-04-16T04:00:45;100763.00;;;7.30
64960;BMP180;51487;52.266;10.542;2023-04-16T04:03:11;100772.00;;;7.10
64960;BMP180;51487;52.266;10.542;2023-04-16T04:05:41;100769.00;;;7.20
64960;BMP180;51487;52.266;10.542;2023-04-16T04:08:07;100771.00;;;7.20
64960;BMP180;51487;52.266;10.542;2023-04-16T04:10:34;100775.00;;;7.20
64960;BMP180;51487;52.266;10.542;2023-04-16T04:13:02;100768.00;;;7.20
64960;BMP180;51487;52.266;10.542;2023-04-16T04:15:29;100783.00;;;7.10
64960;BMP180;51487;52.266;10.542;2023-04-16T04:17:55;100795.00;;;7.20
64960;BMP180;51487;52.266;10.542;2023-04-16T04:20:20;100785.00;;;7.10
64960;BMP180;51487;52.266;10.542;2023-04-16T04:22:47;100784.00;;;7.10
64960;BMP180;51487;52.266;10.542;2023-04-16T04:25:13;100791.00;;;7.30
64960;BMP180;51487;52.266;10.542;2023-04-16T04:27:38;100787.00;;;7.30
64960;BMP180;51487;52.266;10.542;2023-04-16T04:30:04;100788.00;;;7.30
64960;BMP180;51487;52.266;10.542;2023-04-16T04:32:31;100785.00;;;7.30
64960;BMP180;51487;52.266;10.542;2023-04-16T04:34:58;100789.00;;;7.30
64960;BMP180;51487;52.266;10.542;2023-04-16T04:37:25;100786.00;;;7.20
64960;BMP180;51487;52.266;10.542;2023-04-16T04:39:50;100791.00;;;7.10
64960;BMP180;51487;52.266;10.542;2023-04-16T04:42:16;100786.00;;;7.20
64960;BMP180;51487;52.266;10.542;2023-04-16T04:44:43;100789.00;;;7.30
64960;BMP180;51487;52.266;10.542;2023-04-16T04:47:09;100794.00;;;7.40
64960;BMP180;51487;52.266;10.542;2023-04-16T04:49:34;100794.00;;;7.30
64960;BMP180;51487;52.266;10.542;2023-04-16T04:52:00;100802.00;;;7.10
64960;BMP180;51487;52.266;10.542;2023-04-16T04:54:27;100804.00;;;7.20
64960;BMP180;51487;52.266;10.542;2023-04-16T04:56:54;100805.00;;;7.30
64960;BMP180;51487;52.266;10.542;2023-04-16T04:59:20;100808.00;;;7.20
64960;BMP180;51487;52.266;10.542;2023-04-16T05:01:46;100813.00;;;7.20
64960;BMP180;51487;52.266;10.542;2023-04-16T05:04:12;100805.00;;;7.20
64960;BMP180;51487;52.266;10.542;2023-04-16T05:06:38;100813.00;;;7.10
64960;BMP180;51487;52.266;10.542;2023-04-16T05:09:03;100809.00;;;7.20
64960;BMP180;51487;52.266;10.542;2023-04-16T05:11:29;100815.00;;;7.20
64960;BMP180;51487;52.266;10.542;2023-04-16T05:13:54;100817.00;;;7.20
64960;BMP180;51487;52.266;10.542;2023-04-16T05:16:20;100825.00;;;7.10
64960;BMP180;51487;52.266;10.542;2023-04-16T05:18:45;100823.00;;;7.30
64960;BMP180;51487;52.266;10.542;2023-04-16T05:21:11;100823.00;;;7.30
64960;BMP180;51487;52.266;10.542;2023-04-16T05:23:36;100828.00;;;7.30
64960;BMP180;51487;52.266;10.542;2023-04-16T05:26:02;100830.00;;;7.20
64960;BMP180;51487;52.266;10.542;2023-04-16T05:28:29;100851.00;;;7.20
64960;BMP180;51487;52.266;10.542;2023-04-16T05:30:54;100836.00;;;7.00
64960;BMP180;51487;52.266;10.542;2023-04-16T05:33:20;100857.00;;;7.20
64960;BMP180;51487;52.266;10.542;2023-04-16T05:35:45;100851.00;;;7.10
64960;BMP180;51487;52.266;10.542;2023-04-16T05:38:11;100838.00;;;7.20
64960;BMP180;51487;52.266;10.542;2023-04-16T05:40:36;100847.00;;;7.10
64960;BMP180;51487;52.266;10.542;2023-04-16T05:43:02;100846.00;;;7.20
64960;BMP180;51487;52.266;10.542;2023-04-16T05:45:28;100844.00;;;7.30
64960;BMP180;51487;52.266;10.542;2023-04-16T05:47:53;100852.00;;;7.20
64960;BMP180;51487;52.266;10.542;2023-04-16T05:50:19;100862.00;;;7.40
64960;BMP180;51487;52.266;10.542;2023-04-16T05:52:44;100865.00;;;7.20
64960;BMP180;51487;52.266;10.542;2023-04-16T05:55:10;100861.00;;;7.30
64960;BMP180;51487;52.266;10.542;2023-04-16T05:57:35;100864.00;;;7.30
64960;BMP180;51487;52.266;10.542;2023-04-16T06:00:01;100865.00;;;7.30
64960;BMP180;51487;52.266;10.542;2023-04-16T06:02:27;100866.00;;;7.30
64960;BMP180;51487;52.266;10.542;2023-04-16T06:04:54;100862.00;;;7.30
64960;BMP180;51487;52.266;10.542;2023-04-16T06:07:20;100869.00;;;7.40
64960;BMP180;51487;52.266;10.542;2023-04-16T06:09:45;100871.00;;;7.30
64960;BMP180;51487;52.266;10.542;2023-04-16T06:12:11;100863.00;;;7.30
64960;BMP180;51487;52.266;10.542;2023-04-16T06:14:36;100872.00;;;7.30
64960;BMP180;51487;52.266;10.542;2023-04-16T06:17:02;100864.00;;;7.40
64960;BMP180;51487;52.266;10.542;2023-04-16T06:19:27;100873.00;;;7.30
64960;BMP180;51487;52.266;10.542;2023-04-16T06:21:53;100876.00;;;7.40
64960;BMP180;51487;52.266;10.542;2023-04-16T06:24:18;100881.00;;;7.40
64960;BMP180;51487;52.266;10.542;2023-04-16T06:26:44;100875.00;;;7.40
64960;BMP180;51487;52.266;10.542;2023-04-16T06:29:09;100894.00;;;7.40
64960;BMP180;51487;52.266;10.542;2023-04-16T06:31:35;100890.00;;;7.40
64960;BMP180;51487;52.266;10.542;2023-04-16T06:34:01;100885.00;;;7.50
64960;BMP180;51487;52.266;10.542;2023-04-16T06:36:26;100889.00;;;7.60
64960;BMP180;51487;52.266;10.542;2023-04-16T06:38:53;100898.00;;;7.50
64960;BMP180;51487;52.266;10.542;2023-04-16T06:41:18;100895.00;;;7.40
64960;BMP180;51487;52.266;10.542;2023-04-16T06:43:44;100904.00;;;7.40
64960;BMP180;51487;52.266;10.542;2023-04-16T06:46:10;100903.00;;;7.40
64960;BMP180;51487;52.266;10.542;2023-04-16T06:48:35;100907.00;;;7.60
64960;BMP180;51487;52.266;10.542;2023-04-16T06:51:01;100914.00;;;7.60
64960;BMP180;51487;52.266;10.542;2023-04-16T06:53:26;100909.00;;;7.50
64960;BMP180;51487;52.266;10.542;2023-04-16T06:55:52;100900.00;;;7.60
64960;BMP180;51487;52.266;10.542;2023-04-16T06:58:17;100903.00;;;7.60
64960;BMP180;51487;52.266;10.542;2023-04-16T07:00:44;100906.00;;;7.70
64960;BMP180;51487;52.266;10.542;2023-04-16T07:03:10;100909.00;;;7.60
64960;BMP180;51487;52.266;10.542;2023-04-16T07:05:35;100913.00;;;7.60
64960;BMP180;51487;52.266;10.542;2023-04-16T07:08:01;100915.00;;;7.70
64960;BMP180;51487;52.266;10.542;2023-04-16T07:10:26;100911.00;;;7.60
64960;BMP180;51487;52.266;10.542;2023-04-16T07:12:52;100915.00;;;7.70
64960;BMP180;51487;52.266;10.542;2023-04-16T07:15:17;100918.00;;;7.70
64960;BMP180;51487;52.266;10.542;2023-04-16T07:17:43;100919.00;;;7.70
64960;BMP180;51487;52.266;10.542;2023-04-16T07:20:09;100924.00;;;7.70
64960;BMP180;51487;52.266;10.542;2023-04-16T07:22:34;100920.00;;;7.70
64960;BMP180;51487;52.266;10.542;2023-04-16T07:25:00;100928.00;;;7.60
64960;BMP180;51487;52.266;10.542;2023-04-16T07:27:26;100931.00;;;7.30
64960;BMP180;51487;52.266;10.542;2023-04-16T07:29:51;100928.00;;;7.40
64960;BMP180;51487;52.266;10.542;2023-04-16T07:32:17;100933.00;;;7.40
64960;BMP180;51487;52.266;10.542;2023-04-16T07:34:42;100930.00;;;7.50
64960;BMP180;51487;52.266;10.542;2023-04-16T07:37:08;100937.00;;;7.60
64960;BMP180;51487;52.266;10.542;2023-04-16T07:39:33;100935.00;;;7.80
64960;BMP180;51487;52.266;10.542;2023-04-16T07:41:59;100943.00;;;7.70
64960;BMP180;51487;52.266;10.542;2023-04-16T07:44:25;100940.00;;;7.70
64960;BMP180;51487;52.266;10.542;2023-04-16T07:46:51;100937.00;;;7.80
64960;BMP180;51487;52.266;10.542;2023-04-16T07:49:16;100945.00;;;7.90
64960;BMP180;51487;52.266;10.542;2023-04-16T07:51:42;100954.00;;;7.70
64960;BMP180;51487;52.266;10.542;2023-04-16T07:54:07;100948.00;;;7.80
64960;BMP180;51487;52.266;10.542;2023-04-16T07:56:33;100938.00;;;7.90
64960;BMP180;51487;52.266;10.542;2023-04-16T07:58:58;100960.00;;;7.80
64960;BMP180;51487;52.266;10.542;2023-04-16T08:01:24;100943.00;;;7.80
64960;BMP180;51487;52.266;10.542;2023-04-16T08:03:50;100949.00;;;7.80
64960;BMP180;51487;52.266;10.542;2023-04-16T08:06:15;100940.00;;;8.10
64960;BMP180;51487;52.266;10.542;2023-04-16T08:08:41;100949.00;;;8.20
64960;BMP180;51487;52.266;10.542;2023-04-16T08:11:07;100966.00;;;8.10
64960;BMP180;51487;52.266;10.542;2023-04-16T08:13:32;100967.00;;;8.00
64960;BMP180;51487;52.266;10.542;2023-04-16T08:15:58;100969.00;;;7.90
64960;BMP180;51487;52.266;10.542;2023-04-16T08:18:23;100966.00;;;7.90
64960;BMP180;51487;52.266;10.542;2023-04-16T08:20:49;100974.00;;;7.90
64960;BMP180;51487;52.266;10.542;2023-04-16T08:23:15;100985.00;;;7.90
64960;BMP180;51487;52.266;10.542;2023-04-16T08:25:40;100991.00;;;7.80
64960;BMP180;51487;52.266;10.542;2023-04-16T08:28:06;101000.00;;;7.80
64960;BMP180;51487;52.266;10.542;2023-04-16T08:30:32;100999.00;;;7.70
64960;BMP180;51487;52.266;10.542;2023-04-16T08:32:57;100996.00;;;7.80
64960;BMP180;51487;52.266;10.542;2023-04-16T08:35:23;101007.00;;;7.80
64960;BMP180;51487;52.266;10.542;2023-04-16T08:37:49;101003.00;;;7.70
64960;BMP180;51487;52.266;10.542;2023-04-16T08:40:14;101007.00;;;7.80
64960;BMP180;51487;52.266;10.542;2023-04-16T08:42:52;101002.00;;;7.80
64960;BMP180;51487;52.266;10.542;2023-04-16T08:45:25;101013.00;;;7.80
64960;BMP180;51487;52.266;10.542;2023-04-16T08:47:52;101015.00;;;7.80
64960;BMP180;51487;52.266;10.542;2023-04-16T08:50:25;101015.00;;;7.90
64960;BMP180;51487;52.266;10.542;2023-04-16T08:53:04;101015.00;;;7.80
64960;BMP180;51487;52.266;10.542;2023-04-16T08:55:42;101015.00;;;7.60
64960;BMP180;51487;52.266;10.542;2023-04-16T08:58:18;101021.00;;;7.90
64960;BMP180;51487;52.266;10.542;2023-04-16T09:00:44;101022.00;;;7.70
64960;BMP180;51487;52.266;10.542;2023-04-16T09:03:11;101019.00;;;7.40
64960;BMP180;51487;52.266;10.542;2023-04-16T09:05:38;101023.00;;;7.60
64960;BMP180;51487;52.266;10.542;2023-04-16T09:08:07;101028.00;;;7.70
64960;BMP180;51487;52.266;10.542;2023-04-16T09:10:33;101034.00;;;7.60
64960;BMP180;51487;52.266;10.542;2023-04-16T09:12:59;101036.00;;;7.60
64960;BMP180;51487;52.266;10.542;2023-04-16T09:15:25;101038.00;;;7.70
64960;BMP180;51487;52.266;10.542;2023-04-16T09:17:51;101030.00;;;7.60
64960;BMP180;51487;52.266;10.542;2023-04-16T09:20:18;101037.00;;;7.60
64960;BMP180;51487;52.266;10.542;2023-04-16T09:22:44;101036.00;;;7.60
64960;BMP180;51487;52.266;10.542;2023-04-16T09:25:11;101038.00;;;7.60
64960;BMP180;51487;52.266;10.542;2023-04-16T09:27:37;101037.00;;;7.70
64960;BMP180;51487;52.266;10.542;2023-04-16T09:30:22;101039.00;;;7.70
64960;BMP180;51487;52.266;10.542;2023-04-16T09:32:53;101045.00;;;7.70
64960;BMP180;51487;52.266;10.542;2023-04-16T09:35:50;101046.00;;;7.60
64960;BMP180;51487;52.266;10.542;2023-04-16T09:38:17;101050.00;;;7.70
64960;BMP180;51487;52.266;10.542;2023-04-16T09:40:44;101053.00;;;7.60
64960;BMP180;51487;52.266;10.542;2023-04-16T09:43:16;101050.00;;;7.70
64960;BMP180;51487;52.266;10.542;2023-04-16T09:45:50;101050.00;;;7.70
64960;BMP180;51487;52.266;10.542;2023-04-16T09:48:29;101042.00;;;7.70
64960;BMP180;51487;52.266;10.542;2023-04-16T09:50:57;101046.00;;;7.90
64960;BMP180;51487;52.266;10.542;2023-04-16T09:53:28;101047.00;;;7.80
64960;BMP180;51487;52.266;10.542;2023-04-16T09:55:58;101056.00;;;8.00
64960;BMP180;51487;52.266;10.542;2023-04-16T09:58:26;101053.00;;;7.90
64960;BMP180;51487;52.266;10.542;2023-04-16T10:01:09;101059.00;;;8.10
64960;BMP180;51487;52.266;10.542;2023-04-16T10:03:38;101063.00;;;8.00
64960;BMP180;51487;52.266;10.542;2023-04-16T10:06:18;101064.00;;;8.10
64960;BMP180;51487;52.266;10.542;2023-04-16T10:08:48;101080.00;;;7.80
64960;BMP180;51487;52.266;10.542;2023-04-16T10:11:16;101079.00;;;7.80
64960;BMP180;51487;52.266;10.542;2023-04-16T10:13:42;101071.00;;;7.90
64960;BMP180;51487;52.266;10.542;2023-04-16T10:16:08;101074.00;;;7.90
64960;BMP180;51487;52.266;10.542;2023-04-16T10:18:38;101074.00;;;7.90
64960;BMP180;51487;52.266;10.542;2023-04-16T10:21:06;101076.00;;;7.80
64960;BMP180;51487;52.266;10.542;2023-04-16T10:23:33;101079.00;;;7.90
64960;BMP180;51487;52.266;10.542;2023-04-16T10:26:00;101078.00;;;7.80
64960;BMP180;51487;52.266;10.542;2023-04-16T10:28:27;101083.00;;;7.90
64960;BMP180;51487;52.266;10.542;2023-04-16T10:30:55;101084.00;;;8.00
64960;BMP180;51487;52.266;10.542;2023-04-16T10:33:26;101084.00;;;7.90
64960;BMP180;51487;52.266;10.542;2023-04-16T10:36:14;101088.00;;;8.00
64960;BMP180;51487;52.266;10.542;2023-04-16T10:38:49;101092.00;;;8.20
64960;BMP180;51487;52.266;10.542;2023-04-16T10:41:18;101094.00;;;8.20
64960;BMP180;51487;52.266;10.542;2023-04-16T10:43:47;101091.00;;;8.40
64960;BMP180;51487;52.266;10.542;2023-04-16T10:46:36;101093.00;;;8.30
64960;BMP180;51487;52.266;10.542;2023-04-16T10:49:21;101087.00;;;8.50
64960;BMP180;51487;52.266;10.542;2023-04-16T10:51:57;101094.00;;;8.40
64960;BMP180;51487;52.266;10.542;2023-04-16T10:54:24;101093.00;;;8.30
64960;BMP180;51487;52.266;10.542;2023-04-16T10:56:52;101094.00;;;8.40
64960;BMP180;51487;52.266;10.542;2023-04-16T10:59:21;101088.00;;;8.30
64960;BMP180;51487;52.266;10.542;2023-04-16T11:01:52;101101.00;;;8.30
64960;BMP180;51487;52.266;10.542;2023-04-16T11:09:56;101108.00;;;8.80
64960;BMP180;51487;52.266;10.542;2023-04-16T11:15:19;101111.00;;;8.80
64960;BMP180;51487;52.266;10.542;2023-04-16T11:17:46;101107.00;;;8.80
64960;BMP180;51487;52.266;10.542;2023-04-16T11:22:43;101118.00;;;8.60
64960;BMP180;51487;52.266;10.542;2023-04-16T11:25:11;101115.00;;;8.60
64960;BMP180;51487;52.266;10.542;2023-04-16T11:27:37;101121.00;;;8.70
64960;BMP180;51487;52.266;10.542;2023-04-16T11:30:05;101116.00;;;8.60
64960;BMP180;51487;52.266;10.542;2023-04-16T11:32:34;101125.00;;;8.60
64960;BMP180;51487;52.266;10.542;2023-04-16T11:35:02;101131.00;;;8.60
64960;BMP180;51487;52.266;10.542;2023-04-16T11:37:37;101119.00;;;8.20
64960;BMP180;51487;52.266;10.542;2023-04-16T11:40:04;101124.00;;;8.40
64960;BMP180;51487;52.266;10.542;2023-04-16T11:42:32;101113.00;;;8.30
64960;BMP180;51487;52.266;10.542;2023-04-16T11:45:01;101123.00;;;8.30
64960;BMP180;51487;52.266;10.542;2023-04-16T11:47:30;101126.00;;;8.40
64960;BMP180;51487;52.266;10.542;2023-04-16T11:50:26;101126.00;;;8.60
64960;BMP180;51487;52.266;10.542;2023-04-16T11:53:02;101129.00;;;8.70
64960;BMP180;51487;52.266;10.542;2023-04-16T11:55:28;101121.00;;;8.60
64960;BMP180;51487;52.266;10.542;2023-04-16T11:57:54;101120.00;;;8.60
64960;BMP180;51487;52.266;10.542;2023-04-16T12:00:20;101120.00;;;8.60
64960;BMP180;51487;52.266;10.542;2023-04-16T12:02:50;101115.00;;;8.80
64960;BMP180;51487;52.266;10.542;2023-04-16T12:05:35;101118.00;;;8.90
64960;BMP180;51487;52.266;10.542;2023-04-16T12:08:10;101113.00;;;9.00
64960;BMP180;51487;52.266;10.542;2023-04-16T12:10:52;101111.00;;;9.30
64960;BMP180;51487;52.266;10.542;2023-04-16T12:13:18;101110.00;;;9.40
64960;BMP180;51487;52.266;10.542;2023-04-16T12:15:49;101114.00;;;9.80
64960;BMP180;51487;52.266;10.542;2023-04-16T12:18:16;101114.00;;;10.00
64960;BMP180;51487;52.266;10.542;2023-04-16T12:20:45;101099.00;;;10.20
64960;BMP180;51487;52.266;10.542;2023-04-16T12:23:28;101095.00;;;10.10
64960;BMP180;51487;52.266;10.542;2023-04-16T12:25:55;101100.00;;;10.80
64960;BMP180;51487;52.266;10.542;2023-04-16T12:28:31;101096.00;;;11.00
64960;BMP180;51487;52.266;10.542;2023-04-16T12:31:00;101105.00;;;10.90
64960;BMP180;51487;52.266;10.542;2023-04-16T12:33:27;101108.00;;;10.70
64960;BMP180;51487;52.266;10.542;2023-04-16T12:35:53;101111.00;;;10.50
64960;BMP180;51487;52.266;10.542;2023-04-16T12:38:19;101109.00;;;10.90
64960;BMP180;51487;52.266;10.542;2023-04-16T12:40:45;101122.00;;;10.40
64960;BMP180;51487;52.266;10.542;2023-04-16T12:43:11;101123.00;;;10.80
64960;BMP180;51487;52.266;10.542;2023-04-16T12:45:37;101122.00;;;10.70
64960;BMP180;51487;52.266;10.542;2023-04-16T12:48:03;101111.00;;;11.10
64960;BMP180;51487;52.266;10.542;2023-04-16T12:50:29;101118.00;;;11.30
64960;BMP180;51487;52.266;10.542;2023-04-16T12:52:55;101117.00;;;11.00
64960;BMP180;51487;52.266;10.542;2023-04-16T12:55:21;101113.00;;;10.70
64960;BMP180;51487;52.266;10.542;2023-04-16T12:57:46;101122.00;;;10.60
64960;BMP180;51487;52.266;10.542;2023-04-16T13:00:13;101118.00;;;10.10
64960;BMP180;51487;52.266;10.542;2023-04-16T13:02:40;101124.00;;;10.00
64960;BMP180;51487;52.266;10.542;2023-04-16T13:05:06;101131.00;;;10.30
64960;BMP180;51487;52.266;10.542;2023-04-16T13:07:33;101135.00;;;10.20
64960;BMP180;51487;52.266;10.542;2023-04-16T13:09:59;101126.00;;;10.20
64960;BMP180;51487;52.266;10.542;2023-04-16T13:12:25;101126.00;;;10.00
64960;BMP180;51487;52.266;10.542;2023-04-16T13:14:51;101122.00;;;10.40
64960;BMP180;51487;52.266;10.542;2023-04-16T13:17:17;101126.00;;;10.40
64960;BMP180;51487;52.266;10.542;2023-04-16T13:19:42;101136.00;;;10.40
64960;BMP180;51487;52.266;10.542;2023-04-16T13:22:08;101128.00;;;10.70
64960;BMP180;51487;52.266;10.542;2023-04-16T13:24:33;101129.00;;;10.80
64960;BMP180;51487;52.266;10.542;2023-04-16T13:26:59;101124.00;;;11.00
64960;BMP180;51487;52.266;10.542;2023-04-16T13:29:25;101136.00;;;10.70
64960;BMP180;51487;52.266;10.542;2023-04-16T13:31:51;101128.00;;;10.90
64960;BMP180;51487;52.266;10.542;2023-04-16T13:34:16;101128.00;;;10.60
64960;BMP180;51487;52.266;10.542;2023-04-16T13:36:42;101135.00;;;10.70
64960;BMP180;51487;52.266;10.542;2023-04-16T13:39:08;101141.00;;;10.80
64960;BMP180;51487;52.266;10.542;2023-04-16T13:41:39;101127.00;;;10.80
64960;BMP180;51487;52.266;10.542;2023-04-16T13:44:05;101136.00;;;11.00
64960;BMP180;51487;52.266;10.542;2023-04-16T13:46:31;101130.00;;;11.20
64960;BMP180;51487;52.266;10.542;2023-04-16T13:48:57;101132.00;;;10.80
64960;BMP180;51487;52.266;10.542;2023-04-16T13:51:22;101127.00;;;11.00
64960;BMP180;51487;52.266;10.542;2023-04-16T13:53:48;101119.00;;;11.20
64960;BMP180;51487;52.266;10.542;2023-04-16T13:56:13;101129.00;;;11.50
64960;BMP180;51487;52.266;10.542;2023-04-16T13:58:39;101118.00;;;12.00
64960;BMP180;51487;52.266;10.542;2023-04-16T14:01:06;101123.00;;;12.10
64960;BMP180;51487;52.266;10.542;2023-04-16T14:03:32;101130.00;;;12.30
64960;BMP180;51487;52.266;10.542;2023-04-16T14:06:03;101121.00;;;11.60